Altamont, Illinois
Current Conditions -  °F | °C
As of 8:35 PM on Friday 21 Nov 2014 (Local Time) from K1H2 Reporting Station
Overcast Overcast  
Wind Chill: 31°   Ceiling: 2400
Heat Index: 37°   Visibility: NA
Dew Point: 16°   Wind: 8mph
Humidity: 42%   Direction: 140°SE
Pressure: 30.32"   Gusts: NA
Location:  39.06°N, 88.75°W
Report Text: K1H2 220235Z AUTO 14007KT OVC024 03/M09 A3032 RMK AO2 T00281090 PWINO
Loading
Personal Weather Stations






























Interactive Weather Map New forecast layout! Learn more

10-Day Weather Forecast

Advertisements
Track Severe Weather on mobile